Latest Weather Observations for Brisbane

IDQ60901

Issued at 9:51 am EST Friday 12 February 2016 (issued every 10 minutes, with the page automatically refreshed every 10 minutes)

About weather observations | Map of Brisbane area stations | Latest observations for Brisbane area | Other Formats
Station Details ID: 040913 Name: BRISBANE Lat: -27.48 Lon: 153.04 Height: 8.13 m
Data from the previous 72 hours. | See also: Recent months at Brisbane
Date/Time
EST
Tmp

°C
App
Tmp
°C
Dew
Point
°C
Rel
Hum
%
Delta-T

°C
Wind Press
QNH
hPa
Press
MSL
hPa
Rain
since
9 am
mm
Dir
 
Spd
km/h
Gust
km/h
Spd
kts
Gust
kts
12/09:30am 27.8 28.4 18.5 57 5.9 ESE 13 24 7 13 1013.1 1013.1 0.0
12/09:00am 27.4 27.9 18.4 58 5.7 SSE 13 26 7 14 1013.2 1013.2 0.0
12/08:30am 26.1 27.3 18.2 61 5.0 S 9 15 5 8 1013.3 1013.3 0.0
12/08:00am 25.4 27.0 17.8 62 4.8 SW 6 11 3 6 1013.5 1013.5 0.0
12/07:30am 23.5 25.5 17.9 71 3.5 SW 4 9 2 5 1013.5 1013.5 0.0
12/07:00am 22.7 24.5 17.4 72 3.3 SW 4 9 2 5 1013.4 1013.4 0.0
12/06:30am 22.4 24.5 17.3 73 3.1 SSW 2 4 1 2 1013.1 1013.1 0.0
12/06:00am 21.1 23.2 17.3 79 2.3 SW 2 6 1 3 1013.0 1013.0 0.0
12/05:30am 21.1 22.9 17.3 79 2.3 SW 4 7 2 4 1012.9 1012.9 0.0
12/05:00am 21.1 22.8 17.1 78 2.4 SW 4 9 2 5 1012.8 1012.8 0.0
12/04:30am 21.3 23.1 17.5 79 2.3 SW 4 9 2 5 1012.5 1012.5 0.0
12/04:00am 21.3 23.1 17.3 78 2.5 WSW 4 7 2 4 1012.4 1012.4 0.0
12/03:30am 21.5 23.3 17.3 77 2.6 SW 4 9 2 5 1012.4 1012.4 0.0
12/03:00am 21.5 23.3 17.3 77 2.6 SW 4 6 2 3 1012.6 1012.6 0.0
12/02:30am 21.9 23.7 17.5 76 2.7 SW 4 9 2 5 1012.6 1012.6 0.0
12/02:00am 22.0 24.2 17.4 75 2.8 SW 2 6 1 3 1012.6 1012.6 0.0
12/01:30am 22.5 24.0 17.6 74 3.0 SW 6 9 3 5 1012.8 1012.8 0.0
12/01:00am 22.7 24.8 18.0 75 2.9 SW 4 7 2 4 1012.9 1012.9 0.0
12/12:30am 22.9 25.0 18.0 74 3.1 SSW 4 7 2 4 1012.9 1012.9 0.0
12/12:00am 23.0 25.1 18.1 74 3.1 SW 4 7 2 4 1013.0 1013.0 0.0
 
Date/Time
EST
Tmp

°C
App
Tmp
°C
Dew
Point
°C
Rel
Hum
%
Delta-T

°C
Wind Press
QNH
hPa
Press
MSL
hPa
Rain
since
9 am
mm
Dir
 
Spd
km/h
Gust
km/h
Spd
kts
Gust
kts
11/11:30pm 23.3 26.0 18.6 75 3.0 SW 2 6 1 3 1013.2 1013.2 0.0
11/11:00pm 23.5 25.8 18.6 74 3.1 S 4 7 2 4 1013.5 1013.5 0.0
11/10:30pm 23.4 26.0 18.5 74 3.1 S 2 6 1 3 1013.6 1013.6 0.0
11/10:00pm 23.4 26.0 18.5 74 3.1 SSE 2 6 1 3 1013.7 1013.7 0.0
11/09:30pm 23.8 26.0 18.4 72 3.4 SSE 4 7 2 4 1013.6 1013.6 0.0
11/09:00pm 24.1 26.6 19.0 73 3.2 ESE 4 11 2 6 1013.5 1013.5 0.0
11/08:30pm 24.3 26.7 18.9 72 3.4 ESE 4 9 2 5 1013.5 1013.5 0.0
11/08:00pm 24.6 26.6 18.8 70 3.7 SE 6 11 3 6 1013.3 1013.3 0.0
11/07:30pm 24.9 26.4 18.8 69 3.9 ESE 9 17 5 9 1013.1 1013.1 0.0
11/07:00pm 25.1 26.0 18.3 66 4.3 ESE 11 22 6 12 1012.7 1012.7 0.0
11/06:30pm 25.6 25.9 18.0 63 4.8 ESE 13 24 7 13 1012.5 1012.5 0.0
11/06:00pm 26.1 25.5 17.5 59 5.4 E 17 28 9 15 1012.0 1012.0 0.0
11/05:30pm 26.9 26.6 17.4 56 6.0 ESE 15 30 8 16 1011.4 1011.4 0.0
11/05:00pm 26.9 26.1 17.1 55 6.1 ESE 17 26 9 14 1011.2 1011.2 0.0
11/04:30pm 28.3 27.8 16.9 50 7.1 ESE 15 28 8 15 1011.0 1011.0 0.0
11/04:00pm 28.8 27.5 16.7 48 7.6 ESE 19 28 10 15 1010.8 1010.8 0.0
11/03:30pm 29.2 28.9 17.4 49 7.5 ESE 15 28 8 15 1010.8 1010.8 0.0
11/03:00pm 29.9 29.9 18.0 48 7.6 ESE 15 24 8 13 1010.7 1010.7 0.0
11/02:30pm 30.2 30.0 17.6 46 8.0 ESE 15 24 8 13 1010.8 1010.8 0.0
11/02:00pm 29.3 29.1 17.5 49 7.5 ESE 15 24 8 13 1011.0 1011.0 0.0
11/01:30pm 30.9 31.2 17.9 45 8.3 SE 13 26 7 14 1011.0 1011.0 0.0
11/01:00pm 29.1 29.0 17.0 48 7.6 E 13 24 7 13 1011.5 1011.5 0.0
11/12:30pm 29.2 28.8 18.0 51 7.1 E 17 33 9 18 1012.2 1012.2 0.0
11/12:00pm 29.5 30.1 17.7 49 7.5 ESE 11 20 6 11 1012.4 1012.4 0.0
11/11:30am 29.1 29.8 17.9 50 7.1 ESE 11 24 6 13 1012.6 1012.6 0.0
11/11:00am 29.1 29.4 17.9 50 7.1 ESE 13 24 7 13 1012.5 1012.5 0.0
11/10:30am 28.7 29.4 17.9 52 6.9 SE 11 24 6 13 1012.7 1012.7 0.0
11/10:00am 27.7 28.1 17.3 53 6.5 SE 11 22 6 12 1013.0 1013.0 0.0
11/09:30am 27.8 29.0 17.3 52 6.6 SE 7 19 4 10 1013.0 1013.0 0.0
11/09:00am 27.5 28.7 19.0 59 5.5 SE 11 19 6 10 1013.1 1013.1 0.0
11/08:30am 27.2 28.9 19.3 62 5.1 SE 9 15 5 8 1013.1 1013.1 0.0
11/08:00am 25.4 27.3 18.6 66 4.3 WSW 6 9 3 5 1013.2 1013.2 0.0
11/07:30am 24.5 26.3 18.2 68 4.0 SSW 6 11 3 6 1013.2 1013.2 0.0
11/07:00am 23.1 25.1 17.8 72 3.3 SW 4 9 2 5 1013.0 1013.0 0.0
11/06:30am 21.8 23.9 18.0 79 2.4 WSW 4 9 2 5 1012.8 1012.8 0.0
11/06:00am 20.8 22.9 18.0 84 1.7 WSW 4 7 2 4 1012.6 1012.6 0.0
11/05:30am 20.4 22.7 17.6 84 1.7 SW 2 6 1 3 1012.4 1012.4 0.0
11/05:00am 20.4 22.2 17.4 83 1.8 W 4 9 2 5 1012.1 1012.1 0.0
11/04:30am 20.8 23.0 17.4 81 2.1 WSW 2 6 1 3 1011.9 1011.9 0.0
11/04:00am 21.1 22.9 17.5 80 2.2 SW 4 7 2 4 1011.7 1011.7 0.0
11/03:30am 21.3 23.2 17.7 80 2.2 WSW 4 11 2 6 1011.6 1011.6 0.0
11/03:00am 21.4 23.3 17.6 79 2.3 WSW 4 7 2 4 1011.6 1011.6 0.0
11/02:30am 22.1 24.1 17.9 77 2.6 WSW 4 9 2 5 1011.8 1011.8 0.0
11/02:00am 22.1 24.6 18.1 78 2.5 SW 2 7 1 4 1012.1 1012.1 0.0
11/01:30am 22.4 24.8 18.0 76 2.7 SW 2 4 1 2 1012.3 1012.3 0.0
11/01:00am 22.9 25.1 18.4 76 2.8 SSW 4 9 2 5 1012.6 1012.6 0.0
11/12:30am 23.1 25.0 18.6 76 2.8 SE 6 9 3 5 1012.9 1012.9 0.0
11/12:00am 23.1 25.1 18.8 77 2.7 SSE 6 11 3 6 1013.2 1013.2 0.0
 
Date/Time
EST
Tmp

°C
App
Tmp
°C
Dew
Point
°C
Rel
Hum
%
Delta-T

°C
Wind Press
QNH
hPa
Press
MSL
hPa
Rain
since
9 am
mm
Dir
 
Spd
km/h
Gust
km/h
Spd
kts
Gust
kts
10/11:30pm 23.1 25.3 19.1 78 2.5 SE 6 15 3 8 1013.5 1013.5 0.0
10/11:00pm 23.0 24.8 18.7 77 2.7 SE 7 17 4 9 1013.7 1013.7 0.0
10/10:30pm 23.1 24.8 18.6 76 2.8 SE 7 13 4 7 1013.8 1013.8 0.0
10/10:00pm 23.2 24.9 18.5 75 3.0 SE 7 11 4 6 1013.8 1013.8 0.0
10/09:30pm 23.5 25.2 18.4 73 3.2 SE 7 15 4 8 1013.8 1013.8 0.0
10/09:00pm 24.0 25.8 18.2 70 3.6 SE 6 13 3 7 1013.8 1013.8 0.0
10/08:30pm 23.8 25.5 18.0 70 3.6 SE 6 11 3 6 1013.6 1013.6 0.0
10/08:00pm 24.3 25.3 17.8 67 4.1 SE 9 20 5 11 1013.5 1013.5 0.0
10/07:30pm 24.3 25.6 18.5 70 3.7 SE 9 17 5 9 1013.2 1013.2 0.0
10/07:00pm 24.9 25.8 17.6 64 4.6 SE 9 19 5 10 1013.1 1013.1 0.0
10/06:30pm 25.2 26.4 18.2 65 4.4 ESE 9 20 5 11 1012.7 1012.7 0.0
10/06:00pm 25.6 25.3 18.3 64 4.6 ESE 17 26 9 14 1012.2 1012.2 0.0
10/05:30pm 26.4 26.1 18.3 61 5.1 ESE 17 28 9 15 1011.9 1011.9 0.0
10/05:00pm 27.6 27.7 19.1 59 5.5 ESE 17 30 9 16 1011.6 1011.6 0.0
10/04:30pm 27.1 27.6 19.2 62 5.1 E 15 26 8 14 1011.2 1011.2 0.0
10/04:00pm 27.9 28.5 19.4 60 5.5 ESE 15 30 8 16 1011.0 1011.0 0.0
10/03:30pm 28.9 28.5 18.9 54 6.5 E 19 30 10 16 1010.9 1010.9 0.0
10/03:00pm 29.3 29.6 18.7 52 6.8 ESE 15 28 8 15 1011.0 1011.0 0.0
10/02:30pm 29.3 29.2 17.8 50 7.3 ESE 15 28 8 15 1011.1 1011.1 0.0
10/02:00pm 30.6 30.8 17.7 46 8.2 SE 13 26 7 14 1011.5 1011.5 0.0
10/01:30pm 29.9 29.4 17.0 45 8.1 ESE 15 28 8 15 1011.8 1011.8 0.0
10/01:00pm 29.9 30.0 17.4 47 7.9 SE 13 24 7 13 1012.2 1012.2 0.0
10/12:30pm 28.9 28.8 16.1 46 7.9 ESE 11 22 6 12 1012.1 1012.1 0.0
10/12:00pm 29.7 30.0 16.1 43 8.4 SE 9 19 5 10 1012.3 1012.3 0.0
10/11:30am 28.9 29.0 15.4 44 8.3 SE 9 19 5 10 1012.6 1012.6 0.0
10/11:00am 28.6 28.2 16.2 47 7.7 SSE 13 22 7 12 1012.9 1012.9 0.0
10/10:30am 28.4 28.2 15.7 46 7.8 SSE 11 24 6 13 1013.1 1013.1 0.0
10/10:00am 27.9 27.4 15.9 48 7.4 SE 13 24 7 13 1013.5 1013.5 0.0
10/09:30am 27.7 27.5 16.6 50 6.9 SSE 13 20 7 11 1013.7 1013.7 0.0
10/09:00am 26.7 26.7 16.3 53 6.4 SSE 11 22 6 12 1014.0 1014.0 0.0
10/08:30am 25.7 26.7 16.8 58 5.5 SSW 7 19 4 10 1014.0 1014.0 0.0
10/08:00am 24.7 25.6 16.7 61 4.9 SW 7 13 4 7 1014.0 1014.0 0.0
10/07:30am 23.6 24.7 16.6 65 4.3 SW 6 13 3 7 1013.8 1013.8 0.0
10/07:00am 22.8 23.8 16.4 67 3.9 SW 6 15 3 8 1013.5 1013.5 0.0
10/06:30am 22.4 23.3 16.2 68 3.8 SW 6 11 3 6 1013.2 1013.2 0.0
10/06:00am 22.1 22.9 15.9 68 3.7 SW 6 9 3 5 1013.0 1013.0 0.0
10/05:30am 22.1 22.8 15.7 67 3.8 S 6 11 3 6 1012.8 1012.8 0.0
10/05:00am 22.1 22.7 15.7 67 3.8 SSW 7 15 4 8 1012.5 1012.5 0.0
10/04:30am 21.9 22.6 15.7 68 3.7 SW 6 9 3 5 1012.2 1012.2 0.0
10/04:00am 21.8 22.5 15.6 68 3.7 SSW 6 13 3 7 1012.4 1012.4 0.0
10/03:30am 22.2 23.0 15.8 67 3.8 SSW 6 11 3 6 1012.4 1012.4 0.0
10/03:00am 22.7 23.4 16.0 66 4.0 S 7 13 4 7 1012.5 1012.5 0.0
10/02:30am 22.8 23.7 16.1 66 4.1 S 6 11 3 6 1012.6 1012.6 0.0
10/02:00am 22.9 23.8 16.2 66 4.1 S 6 11 3 6 1013.0 1013.0 0.0
10/01:30am 22.9 23.9 16.4 67 4.0 SSE 6 13 3 7 1013.3 1013.3 0.0
10/01:00am 22.9 23.6 16.0 65 4.2 SSE 7 20 4 11 1013.6 1013.6 0.0
10/12:30am 23.1 24.1 15.4 62 4.6 S 4 9 2 5 1013.9 1013.9 0.0
10/12:00am 23.2 24.6 15.5 62 4.6 S 2 6 1 3 1014.4 1014.4 0.0
 
Date/Time
EST
Tmp

°C
App
Tmp
°C
Dew
Point
°C
Rel
Hum
%
Delta-T

°C
Wind Press
QNH
hPa
Press
MSL
hPa
Rain
since
9 am
mm
Dir
 
Spd
km/h
Gust
km/h
Spd
kts
Gust
kts
09/11:30pm 23.1 24.1 15.4 62 4.6 S 4 9 2 5 1014.6 1014.6 0.0
09/11:00pm 22.9 23.4 15.0 61 4.7 S 6 9 3 5 1015.0 1015.0 0.0
09/10:30pm 23.5 23.9 14.8 58 5.2 S 6 13 3 7 1015.5 1015.5 0.0
09/10:00pm 23.5 23.8 14.5 57 5.3 S 6 13 3 7 1015.8 1015.8 0.0
09/09:30pm 23.8 23.5 14.5 56 5.5 SSE 9 17 5 9 1016.1 1016.1 0.0
09/09:00pm 24.1 23.8 14.5 55 5.7 SSE 9 19 5 10 1016.1 1016.1 0.0
09/08:30pm 24.4 24.1 14.5 54 5.9 SSE 9 19 5 10 1016.1 1016.1 0.0
09/08:00pm 24.8 23.9 13.7 50 6.5 SSE 11 24 6 13 1015.8 1015.8 0.0
09/07:30pm 25.3 23.5 13.2 47 7.1 SE 15 28 8 15 1015.6 1015.6 0.0
09/07:00pm 25.8 23.9 13.0 45 7.4 SE 15 32 8 17 1015.0 1015.0 0.0
09/06:30pm 26.4 25.0 14.5 48 7.1 SE 15 26 8 14 1014.6 1014.6 0.0
09/06:00pm 26.9 25.4 15.3 49 7.0 ESE 17 33 9 18 1014.2 1014.2 0.0
09/05:30pm 27.4 26.2 16.1 50 7.0 ESE 17 33 9 18 1013.9 1013.9 0.0
09/05:00pm 27.8 27.1 16.4 50 7.1 ESE 15 30 8 16 1013.7 1013.7 0.0
09/04:30pm 27.9 26.4 16.2 49 7.2 ESE 19 28 10 15 1013.6 1013.6 0.0
09/04:00pm 28.4 26.9 16.7 49 7.3 ESE 20 32 11 17 1013.5 1013.5 0.0
09/03:30pm 29.1 27.3 15.6 44 8.3 ESE 19 32 10 17 1013.3 1013.3 0.0
09/03:00pm 29.4 28.4 16.6 46 8.0 ESE 17 33 9 18 1013.3 1013.3 0.0
09/02:30pm 29.3 27.9 16.5 46 8.0 SE 19 37 10 20 1013.5 1013.5 0.0
09/02:00pm 29.0 27.7 16.9 48 7.6 ESE 19 33 10 18 1013.7 1013.7 0.0
09/01:30pm 29.0 27.8 16.2 46 7.9 ESE 17 37 9 20 1013.8 1013.8 0.0
09/01:00pm 29.6 28.4 16.1 44 8.4 SE 17 30 9 16 1014.1 1014.1 0.0
09/12:30pm 29.1 28.3 16.0 45 8.1 SE 15 28 8 15 1014.2 1014.2 0.0
09/12:00pm 29.5 28.4 16.3 45 8.2 SE 17 28 9 15 1014.6 1014.6 0.0
09/11:30am 29.2 28.4 16.0 44 8.2 SE 15 24 8 13 1014.9 1014.9 0.0
09/11:00am 28.9 27.2 15.8 45 8.1 SSE 19 39 10 21 1015.2 1015.2 0.0
09/10:30am 28.8 27.3 16.4 47 7.7 SE 19 32 10 17 1015.5 1015.5 0.0
09/10:00am 28.2 27.9 17.4 52 6.8 SE 15 26 8 14 1015.7 1015.7 0.0

Latest Capital City Observations: Canberra | Sydney | Melbourne | Brisbane | Adelaide | Perth | Hobart | Darwin

Other Formats:

Comma delimited format used in spreadsheet applications
http://www.bom.gov.au/fwo/IDQ60901/IDQ60901.94576.axf

JavaScript Object Notation format (JSON) in row-major order
http://www.bom.gov.au/fwo/IDQ60901/IDQ60901.94576.json